Terminal Aerodrome Forecast
Issued by NWS

Home | Current Version | Previous Version | Text Only | Print | Product List | Glossary On
Versions: 1 2 3 4 5 6 7 8 9 10 11 12
000
FTUS45 KRIW 232300
TAFJAC
TAF
KJAC 232320Z 2400/2424 VRB05KT P6SM VCSH SCT020 BKN050
      TEMPO 2400/2403 6SM -SHRA BR BKN020
     FM240400 VRB06KT P6SM VCSH SCT018 BKN035
     FM241900 02009KT P6SM VCSH SCT020 BKN040
      AMD LTD TO CLD VIS AND WIND=

USA.gov is the U.S. government's official web portal to all federal, state and local government web resources and services.